createdAt,value
2017-04-07T00:01:36.648Z,1015.6
2017-04-07T00:11:48.026Z,1015.6
2017-04-07T00:21:59.526Z,1015.5
2017-04-07T00:32:10.882Z,1015.3
2017-04-07T00:42:22.355Z,1015.1
2017-04-07T00:52:33.864Z,1015.1
2017-04-07T01:02:45.421Z,1015
2017-04-07T01:12:56.950Z,1015
2017-04-07T01:23:08.523Z,1014.8
2017-04-07T01:33:20.120Z,1014.6
2017-04-07T01:43:31.651Z,1014.6
2017-04-07T01:53:43.118Z,1014.5
2017-04-07T02:03:54.543Z,1014.5
2017-04-07T02:14:05.922Z,1014.5
2017-04-07T02:24:17.236Z,1014.4
2017-04-07T02:34:28.587Z,1014.5
2017-04-07T02:44:39.929Z,1014.5
2017-04-07T02:54:51.200Z,1014.3
2017-04-07T03:05:02.417Z,1014.3
2017-04-07T03:15:13.629Z,1014.3
2017-04-07T03:25:24.866Z,1014.1
2017-04-07T03:35:36.039Z,1014.1
2017-04-07T03:45:47.280Z,1014
2017-04-07T03:55:58.488Z,1014
2017-04-07T04:06:09.697Z,1014
2017-04-07T04:16:20.942Z,1014
2017-04-07T04:26:32.187Z,1014
2017-04-07T04:36:43.423Z,1014
2017-04-07T04:46:54.629Z,1014.2
2017-04-07T04:57:05.828Z,1014
2017-04-07T05:07:17.017Z,1013.9
2017-04-07T05:17:28.216Z,1013.9
2017-04-07T05:27:39.381Z,1014
2017-04-07T05:37:50.657Z,1014
2017-04-07T05:48:01.774Z,1014
2017-04-07T05:58:12.768Z,1014.1
2017-04-07T06:08:23.841Z,1014.2
2017-04-07T06:18:34.879Z,1014.4
2017-04-07T06:28:45.855Z,1014.5
2017-04-07T06:38:56.745Z,1014.2
2017-04-07T06:49:07.590Z,1014.3
2017-04-07T06:59:18.430Z,1014.3
2017-04-07T07:09:29.160Z,1014.3
2017-04-07T07:19:39.842Z,1014.5
2017-04-07T07:29:50.505Z,1014.4
2017-04-07T07:40:01.212Z,1014.4
2017-04-07T07:50:12.234Z,1014.4
2017-04-07T08:10:32.872Z,1014.5
2017-04-07T08:20:43.173Z,1014.5
2017-04-07T08:30:53.414Z,1014.5
2017-04-07T08:41:03.614Z,1014.6
2017-04-07T08:51:13.852Z,1014.5
2017-04-07T09:01:57.211Z,1014.7
2017-04-07T09:11:33.954Z,1014.6
2017-04-07T09:21:43.980Z,1014.5
2017-04-07T09:31:53.960Z,1014.4
2017-04-07T09:42:03.821Z,1014.3
2017-04-07T09:52:13.671Z,1014.3
2017-04-07T10:02:23.441Z,1014.2
2017-04-07T10:12:32.890Z,1014.2
2017-04-07T10:22:42.024Z,1014.1
2017-04-07T10:32:51.142Z,1014.2
2017-04-07T10:43:00.304Z,1013.9
2017-04-07T10:53:09.531Z,1014.1
2017-04-07T11:03:18.617Z,1014.1
2017-04-07T11:13:27.813Z,1015.3
2017-04-07T11:23:36.853Z,1014.1
2017-04-07T11:33:45.804Z,1014.1
2017-04-07T11:43:54.831Z,1014.1
2017-04-07T11:54:03.806Z,1014.1
2017-04-07T12:04:12.666Z,1014
2017-04-07T12:14:21.758Z,1013.8
2017-04-07T12:24:30.947Z,1013.8
2017-04-07T12:34:40.112Z,1013.8
2017-04-07T12:44:49.213Z,1013.7
2017-04-07T12:54:58.199Z,1013.5
2017-04-07T13:05:07.398Z,1013.5
2017-04-07T13:15:16.800Z,1013.7
2017-04-07T13:25:26.254Z,1013.6
2017-04-07T13:35:35.646Z,1013.6
2017-04-07T13:45:45.177Z,1013.5
2017-04-07T13:55:54.671Z,1013.4
2017-04-07T14:06:04.126Z,1013.6
2017-04-07T14:16:13.683Z,1013.6
2017-04-07T14:26:23.291Z,1013.4
2017-04-07T14:36:32.952Z,1013.4
2017-04-07T14:46:42.679Z,1013.2
2017-04-07T14:56:52.433Z,1013
2017-04-07T15:07:02.171Z,1013.1
2017-04-07T15:17:11.916Z,1013.2
2017-04-07T15:27:21.728Z,1013
2017-04-07T15:37:31.560Z,1013.2
2017-04-07T15:47:41.396Z,1013.1
2017-04-07T15:57:51.227Z,1013.2
2017-04-07T16:08:01.088Z,1013.1
2017-04-07T16:18:10.986Z,1013.1
2017-04-07T16:28:20.906Z,1013.2
2017-04-07T16:38:30.846Z,1013.2
2017-04-07T16:48:40.784Z,1013.3
2017-04-07T16:58:50.728Z,1013.4
2017-04-07T17:09:00.723Z,1013.3
2017-04-07T17:19:10.748Z,1013.4
2017-04-07T17:29:20.774Z,1013.4
2017-04-07T17:39:30.864Z,1013.6
2017-04-07T17:49:40.946Z,1013.6
2017-04-07T17:59:51.064Z,1013.7
2017-04-07T18:10:01.216Z,1013.6
2017-04-07T18:20:11.363Z,1013.7
2017-04-07T18:30:21.476Z,1013.8
2017-04-07T18:40:31.664Z,1013.9
2017-04-07T18:50:41.873Z,1014
2017-04-07T19:00:52.061Z,1014.1
2017-04-07T19:11:02.225Z,1014.1
2017-04-07T19:21:12.398Z,1014.2
2017-04-07T19:31:22.562Z,1014.2
2017-04-07T19:41:32.789Z,1014.4
2017-04-07T19:51:43.029Z,1014.4
2017-04-07T20:01:53.254Z,1014.5
2017-04-07T20:12:03.503Z,1014.5
2017-04-07T20:22:13.713Z,1014.5
2017-04-07T20:32:24.008Z,1014.4
2017-04-07T20:42:34.293Z,1014.5
2017-04-07T20:52:44.611Z,1014.5
2017-04-07T21:02:54.949Z,1014.5
2017-04-07T21:13:05.289Z,1014.5
2017-04-07T21:23:15.629Z,1014.5
2017-04-07T21:33:25.983Z,1014.6
2017-04-07T21:43:36.323Z,1014.5
2017-04-07T21:53:46.703Z,1014.5
2017-04-07T22:03:57.108Z,1014.6
2017-04-07T22:14:07.549Z,1014.5
2017-04-07T22:24:17.982Z,1014.5
2017-04-07T22:34:28.471Z,1014.5
2017-04-07T22:44:38.976Z,1014.5
2017-04-07T22:54:49.527Z,1014.6
2017-04-07T23:05:00.106Z,1014.5
2017-04-07T23:15:10.692Z,1014.5
2017-04-07T23:25:21.281Z,1014.5
2017-04-07T23:35:31.881Z,1014.5
2017-04-07T23:45:42.415Z,1014.5
2017-04-07T23:55:52.957Z,1014.4
